ADDS METAR Data INFO
IDs: Format: Raw Decoded Include TAF

Data at: 1601 UTC 12 Dec 2017

KATL 121552Z 32024G30KT 10SM SCT042 09/00 A2993 RMK AO2 PK WND 33030/1551 SLP137 T00940000
KATL 121452Z 32013KT 10SM FEW150 09/02 A2991 RMK AO2 SLP131 T00890017 53018
KATL 121352Z 30010KT 10SM FEW180 FEW220 06/02 A2989 RMK AO2 SLP123 VIRGA NW-N T00610022
KATL 121252Z 29008KT 10SM FEW180 SCT220 05/02 A2987 RMK AO2 SLP116 T00500022
KATL 121152Z 28009KT 10SM FEW180 BKN220 06/03 A2986 RMK AO2 SLP113 T00560028 10089 20056 55004
KATL 121052Z 26006KT 10SM BKN200 06/03 A2984 RMK AO2 SLP106 T00610028
KATL 120952Z 26006KT 10SM BKN200 07/03 A2985 RMK AO2 SLP109 T00670028
KATL 120852Z 24005KT 10SM BKN200 07/03 A2987 RMK AO2 SLP115 T00670028 56019
KATL 120752Z 24006KT 10SM SCT200 07/03 A2988 RMK AO2 SLP118 T00720028
KATL 120652Z 24007KT 10SM FEW200 08/03 A2990 RMK AO2 SLP124 T00830028
KATL 120552Z 23008KT 10SM FEW200 09/03 A2993 RMK AO2 SLP134 T00890028 10111 20083 58019
KATL 120452Z 24008KT 10SM FEW250 09/02 A2995 RMK AO2 SLP142 T00890022 401611011
KATL 120352Z 24009KT 10SM FEW250 09/02 A2997 RMK AO2 SLP149 T00940022
KATL 120252Z 25008KT 10SM FEW250 10/02 A2999 RMK AO2 SLP157 T01000022 56011
KATL 120152Z 23007KT 10SM FEW250 10/02 A2999 RMK AO2 SLP160 T01000017
KATL 120052Z 24007KT 10SM FEW250 10/01 A3001 RMK AO2 SLP169 T01000011
KATL 112352Z 24004KT 10SM FEW250 11/01 A3002 RMK AO2 SLP170 T01110006 10161 20106 55008
KATL 112252Z 23005KT 10SM FEW200 12/01 A3001 RMK AO2 SLP168 T01220006
KATL 112152Z 26007KT 10SM FEW200 14/01 A3003 RMK AO2 SLP173 T01440006
KATL 112052Z 25008KT 10SM FEW200 16/00 A3004 RMK AO2 SLP176 T01560000 56017
KATL 111952Z 27008KT 10SM CLR 16/01 A3005 RMK AO2 SLP178 T01610011
KATL 111852Z 24006KT 10SM CLR 15/02 A3008 RMK AO2 SLP187 T01500017
KATL 111752Z VRB04KT 10SM CLR 13/02 A3010 RMK AO2 SLP195 T01280017 10128 21011 58030
KATL 111652Z 00000KT 10SM CLR 11/01 A3015 RMK AO2 SLP215 T01060006
KATL 111552Z 24008KT 10SM CLR 09/M01 A3019 RMK AO2 SLP227 T00891006
KATL 111452Z 28007KT 10SM CLR 06/M01 A3019 RMK AO2 SLP228 T00611006 53001
KATL 111352Z 28007KT 10SM CLR 03/M01 A3018 RMK AO2 SLP229 T00281011
KATL 111252Z 27005KT 10SM CLR M01/M02 A3019 RMK AO2 SLP230 T10061022
KATL 111152Z 31006KT 10SM CLR M01/M03 A3018 RMK AO2 SLP230 T10061028 10017 21006 55003
KATL 111052Z 29005KT 10SM CLR 01/M02 A3018 RMK AO2 SLP227 T00061022
KATL 110952Z 26004KT 10SM CLR 01/M02 A3018 RMK AO2 SLP227 T00111022
KATL 110852Z 26005KT 10SM CLR 02/M02 A3019 RMK AO2 SLP230 T00171022 56013
KATL 110752Z 24003KT 10SM CLR 01/M02 A3021 RMK AO2 SLP236 T00061022
KATL 110652Z 26004KT 10SM CLR 01/M02 A3022 RMK AO2 SLP239 T00111022
KATL 110552Z 27005KT 10SM CLR 01/M03 A3023 RMK AO2 SLP244 T00111028 10028 20011 50003
KATL 110452Z 28007KT 10SM CLR 01/M03 A3024 RMK AO2 SLP249 T00111028 400721033